Weather at Erie County Medical Center Heliport

Public forecast

Using degrees Fahrenheit for public forecast. Weather courtesy of forecast.io.

Closest aviation weather report (METAR) to Erie County Medical Center Heliport

Closest report is Buffalo Niagara International Airport, 4.5 nm (8.3 km) E.

2024/05/24 20:54 (retrieved 7 minutes ago)

KBUF 242054Z 25012KT 10SM FEW060 FEW290 24/07 A2986 RMK AO2 SLP110 T02440067 58009

Closest aviation forecast (TAF) to Erie County Medical Center Heliport

Closest forecast is Buffalo Niagara International Airport, 4.5 nm (8.3 km) E.

2024/05/24 18:36 (retrieved 2 hours ago)

TAF KBUF 241734Z 2418/2518 24013KT P6SM SKC FM242300 31004KT P6SM SKC FM250900 11007KT P6SM SCT250 FM251200 22013G21KT P6SM BKN200 FM251500 25015G23KT P6SM VCSH BKN060